createdAt,value
2022-11-28T00:02:02.984Z,101108.52
2022-11-28T00:07:05.561Z,101107.32
2022-11-28T00:12:08.221Z,101106.11
2022-11-28T00:17:10.680Z,101105.23
2022-11-28T00:22:13.168Z,101103.46
2022-11-28T00:27:15.640Z,101107.06
2022-11-28T00:32:20.551Z,101103.97
2022-11-28T00:37:23.041Z,101103.96
2022-11-28T00:42:25.574Z,101100.55
2022-11-28T00:47:28.067Z,101095.73
2022-11-28T00:52:32.719Z,101097.81
2022-11-28T00:57:35.218Z,101093.99
2022-11-28T01:02:37.820Z,101096.39
2022-11-28T01:07:42.435Z,101093.31
2022-11-28T01:12:45.055Z,101090.58
2022-11-28T01:17:47.593Z,101082.98
2022-11-28T01:22:50.080Z,101080.91
2022-11-28T01:27:52.591Z,101073.17
2022-11-28T01:32:55.115Z,101066.63
2022-11-28T01:37:57.564Z,101061.26
2022-11-28T01:43:00.086Z,101055.39
2022-11-28T01:48:03.825Z,101051.60
2022-11-28T01:53:09.295Z,101049.84
2022-11-28T01:58:12.684Z,101046.21
2022-11-28T02:03:20.838Z,101046.73
2022-11-28T02:08:25.427Z,101033.29
2022-11-28T02:13:58.216Z,101031.41
2022-11-28T02:19:25.368Z,101023.65
2022-11-28T02:24:30.794Z,101025.53
2022-11-28T02:29:36.172Z,101024.50
2022-11-28T02:34:54.584Z,101022.79
2022-11-28T02:40:05.576Z,101017.11
2022-11-28T02:45:13.594Z,101008.81
2022-11-28T02:50:22.059Z,101003.46
2022-11-28T02:55:26.350Z,100992.74
2022-11-28T03:00:32.005Z,100988.41
2022-11-28T03:05:46.108Z,100984.96
2022-11-28T03:10:54.482Z,100978.58
2022-11-28T03:16:07.640Z,100975.65
2022-11-28T03:21:17.739Z,100975.28
2022-11-28T03:26:34.923Z,100981.30
2022-11-28T03:31:43.088Z,100985.44
2022-11-28T03:36:52.320Z,100984.38
2022-11-28T03:41:59.741Z,100990.38
2022-11-28T03:47:05.590Z,100986.35
2022-11-28T03:52:14.764Z,100989.77
2022-11-28T03:57:25.100Z,100998.23
2022-11-28T04:02:34.993Z,100999.08
2022-11-28T04:07:45.924Z,100998.37
2022-11-28T04:12:54.481Z,101002.44
2022-11-28T04:18:00.624Z,100999.80
2022-11-28T04:23:09.732Z,100999.95
2022-11-28T04:28:18.574Z,100992.17
2022-11-28T04:33:24.751Z,100992.35
2022-11-28T04:38:29.596Z,100990.82
2022-11-28T04:43:37.201Z,100990.83
2022-11-28T04:48:39.750Z,100987.19
2022-11-28T04:53:45.321Z,100985.80
2022-11-28T04:58:50.506Z,100985.44
2022-11-28T05:03:54.134Z,100985.77
2022-11-28T05:08:56.720Z,100987.14
2022-11-28T05:13:59.355Z,100985.86
2022-11-28T05:19:01.918Z,100983.73
2022-11-28T05:24:04.661Z,100984.40
2022-11-28T05:29:07.119Z,100993.54
2022-11-28T05:34:09.605Z,100998.00
2022-11-28T05:39:12.233Z,100999.05
2022-11-28T05:44:16.850Z,100993.39
2022-11-28T05:49:21.555Z,100990.63
2022-11-28T05:54:24.277Z,100987.87
2022-11-28T05:59:26.798Z,100984.22
2022-11-28T06:04:29.337Z,100986.77
2022-11-28T06:09:31.917Z,100990.19
2022-11-28T06:14:34.499Z,100990.16
2022-11-28T06:19:37.186Z,100992.73
2022-11-28T06:24:39.635Z,100993.54
2022-11-28T06:29:42.439Z,100994.38
2022-11-28T06:34:45.109Z,100988.35
2022-11-28T06:39:47.657Z,100983.89
2022-11-28T06:44:50.380Z,100983.69
2022-11-28T06:49:52.967Z,100992.61
2022-11-28T06:54:57.728Z,100994.79
2022-11-28T07:00:00.342Z,100994.46
2022-11-28T07:05:03.175Z,100993.94
2022-11-28T07:10:06.569Z,100994.80
2022-11-28T07:15:09.847Z,100996.36
2022-11-28T07:20:12.878Z,100993.93
2022-11-28T07:25:15.970Z,100991.36
2022-11-28T07:30:19.966Z,100985.52
2022-11-28T07:35:22.476Z,100989.11
2022-11-28T07:40:25.020Z,100992.59
2022-11-28T07:45:41.955Z,100993.05
2022-11-28T07:50:50.298Z,100988.50
2022-11-28T07:55:52.916Z,100983.19
2022-11-28T08:00:55.431Z,100982.40
2022-11-28T08:06:02.868Z,100977.81
2022-11-28T08:11:08.265Z,100978.20
2022-11-28T08:16:14.514Z,100974.98
2022-11-28T08:21:20.041Z,100977.12
2022-11-28T08:26:28.913Z,100974.54
2022-11-28T08:31:35.065Z,100976.95
2022-11-28T08:36:40.020Z,100975.73
2022-11-28T08:41:42.729Z,100977.84
2022-11-28T08:46:45.313Z,100974.98
2022-11-28T08:51:47.848Z,100972.83
2022-11-28T08:56:50.771Z,100973.73
2022-11-28T09:01:54.249Z,100969.75
2022-11-28T09:06:56.799Z,100972.52
2022-11-28T09:11:59.307Z,100966.00
2022-11-28T09:17:02.069Z,100964.96
2022-11-28T09:22:04.596Z,100963.27
2022-11-28T09:27:07.032Z,100962.25
2022-11-28T09:32:09.518Z,100957.95
2022-11-28T09:37:12.158Z,100957.30
2022-11-28T09:42:27.473Z,100956.63
2022-11-28T09:47:32.698Z,100952.34
2022-11-28T09:52:47.456Z,100949.92
2022-11-28T09:57:52.239Z,100948.72
2022-11-28T10:03:00.588Z,100944.08
2022-11-28T10:08:13.920Z,100943.58
2022-11-28T10:13:24.391Z,100937.03
2022-11-28T10:18:35.062Z,100932.85
2022-11-28T10:23:43.809Z,100927.11
2022-11-28T10:28:50.316Z,100920.29
2022-11-28T10:34:17.384Z,100924.50
2022-11-28T10:39:19.982Z,100916.52
2022-11-28T10:44:31.915Z,100915.58
2022-11-28T10:49:50.260Z,100914.43
2022-11-28T10:55:07.305Z,100909.42
2022-11-28T11:00:13.737Z,100905.27
2022-11-28T11:05:36.525Z,100906.14
2022-11-28T11:10:46.603Z,100896.29
2022-11-28T11:16:02.297Z,100896.81
2022-11-28T11:21:10.137Z,100897.34
2022-11-28T11:26:18.500Z,100900.45
2022-11-28T11:31:28.264Z,100897.35
2022-11-28T11:36:34.533Z,100900.96
2022-11-28T11:41:39.999Z,100894.23
2022-11-28T11:46:48.710Z,100893.56
2022-11-28T11:51:59.327Z,100895.13
2022-11-28T11:57:30.838Z,100891.17
2022-11-28T12:02:35.105Z,100888.23
2022-11-28T12:07:48.720Z,100890.98
2022-11-28T12:12:51.255Z,100896.20
2022-11-28T12:17:59.625Z,100895.86
2022-11-28T12:23:04.706Z,100898.62
2022-11-28T12:28:12.238Z,100890.68
2022-11-28T12:33:18.827Z,100892.76
2022-11-28T12:38:36.499Z,100891.55
2022-11-28T12:43:42.589Z,100894.14
2022-11-28T12:48:53.673Z,100886.05
2022-11-28T12:54:06.279Z,100880.54
2022-11-28T12:59:14.985Z,100882.09
2022-11-28T13:04:27.197Z,100880.02
2022-11-28T13:09:34.457Z,100887.27
2022-11-28T13:14:40.828Z,100885.36
2022-11-28T13:19:52.067Z,100878.29
2022-11-28T13:26:05.551Z,100879.16
2022-11-28T13:31:22.935Z,100876.74
2022-11-28T13:42:28.789Z,100879.32
2022-11-28T13:47:34.425Z,100877.26
2022-11-28T13:52:42.376Z,100877.27
2022-11-28T13:57:44.882Z,100882.80
2022-11-28T14:02:58.837Z,100877.59
2022-11-28T14:08:03.908Z,100873.20
2022-11-28T14:13:29.658Z,100868.66
2022-11-28T14:18:57.122Z,100867.04
2022-11-28T14:24:01.079Z,100861.66
2022-11-28T14:29:06.049Z,100857.14
2022-11-28T14:34:31.397Z,100860.18
2022-11-28T14:39:34.881Z,100861.55
2022-11-28T14:44:45.610Z,100868.63
2022-11-28T14:49:48.929Z,100868.61
2022-11-28T14:54:53.473Z,100874.13
2022-11-28T14:59:58.491Z,100864.99
2022-11-28T15:05:04.891Z,100861.77
2022-11-28T15:10:16.254Z,100856.96
2022-11-28T15:15:20.376Z,100861.44
2022-11-28T15:20:29.788Z,100864.36
2022-11-28T15:25:37.145Z,100871.76
2022-11-28T15:30:46.149Z,100867.11
2022-11-28T15:36:13.007Z,100873.48
2022-11-28T15:41:21.096Z,100880.36
2022-11-28T15:46:29.482Z,100879.98
2022-11-28T15:51:35.456Z,100865.19
2022-11-28T15:56:37.951Z,100866.41
2022-11-28T16:01:40.690Z,100866.23
2022-11-28T16:06:50.270Z,100869.69
2022-11-28T16:11:54.271Z,100868.16
2022-11-28T16:16:59.287Z,100867.29
2022-11-28T16:22:18.928Z,100862.98
2022-11-28T16:27:27.298Z,100864.04
2022-11-28T16:32:37.872Z,100866.64
2022-11-28T16:37:40.477Z,100863.88
2022-11-28T16:42:52.295Z,100865.10
2022-11-28T16:48:00.243Z,100866.48
2022-11-28T16:53:03.606Z,100870.81
2022-11-28T16:58:11.428Z,100869.29
2022-11-28T17:03:19.788Z,100870.84
2022-11-28T17:08:28.981Z,100872.06
2022-11-28T17:13:33.075Z,100876.20
2022-11-28T17:18:35.526Z,100877.92
2022-11-28T17:23:38.920Z,100873.63
2022-11-28T17:28:41.501Z,100870.89
2022-11-28T17:33:44.983Z,100873.48
2022-11-28T17:38:47.574Z,100869.54
2022-11-28T17:43:50.087Z,100867.64
2022-11-28T17:48:52.611Z,100861.10
2022-11-28T17:53:55.094Z,100860.95
2022-11-28T17:58:57.613Z,100863.71
2022-11-28T18:04:00.151Z,100865.60
2022-11-28T18:09:11.392Z,100869.41
2022-11-28T18:14:17.249Z,100871.48
2022-11-28T18:19:22.255Z,100873.20
2022-11-28T18:24:24.741Z,100875.09
2022-11-28T18:29:27.202Z,100875.08
2022-11-28T18:34:29.769Z,100871.80
2022-11-28T18:39:33.073Z,100876.81
2022-11-28T18:44:35.598Z,100878.54
2022-11-28T18:49:38.097Z,100876.63
2022-11-28T18:54:40.579Z,100877.33
2022-11-28T18:59:49.926Z,100874.56
2022-11-28T19:04:55.705Z,100878.34
2022-11-28T19:09:58.193Z,100874.87
2022-11-28T19:15:02.659Z,100883.16
2022-11-28T19:20:06.244Z,100883.48
2022-11-28T19:25:08.923Z,100882.96
2022-11-28T19:30:11.850Z,100882.44
2022-11-28T19:35:14.499Z,100885.87
2022-11-28T19:40:17.013Z,100885.36
2022-11-28T19:45:19.992Z,100885.85
2022-11-28T19:50:22.520Z,100888.60
2022-11-28T19:55:25.057Z,100890.15
2022-11-28T20:00:27.563Z,100889.65
2022-11-28T20:05:31.636Z,100888.45
2022-11-28T20:10:36.423Z,100889.81
2022-11-28T20:15:38.873Z,100887.08
2022-11-28T20:20:41.406Z,100884.49
2022-11-28T20:25:43.883Z,100882.92
2022-11-28T20:30:46.363Z,100882.92
2022-11-28T20:35:48.912Z,100886.91
2022-11-28T20:40:51.397Z,100888.27
2022-11-28T20:45:54.082Z,100891.35
2022-11-28T20:50:56.782Z,100894.43
2022-11-28T20:56:02.784Z,100892.52
2022-11-28T21:01:05.731Z,100889.24
2022-11-28T21:06:08.407Z,100891.83
2022-11-28T21:11:30.574Z,100889.73
2022-11-28T21:16:37.503Z,100889.91
2022-11-28T21:21:42.684Z,100893.71
2022-11-28T21:26:51.063Z,100887.85
2022-11-28T21:31:55.931Z,100896.95
2022-11-28T21:36:58.501Z,100896.23
2022-11-28T21:42:02.163Z,100899.33
2022-11-28T21:47:05.435Z,100896.06
2022-11-28T21:52:09.327Z,100891.73
2022-11-28T21:57:11.817Z,100887.05
2022-11-28T22:02:14.942Z,100886.53
2022-11-28T22:07:17.713Z,100888.08
2022-11-28T22:12:20.319Z,100881.51
2022-11-28T22:17:22.841Z,100881.98
2022-11-28T22:22:27.427Z,100883.90
2022-11-28T22:27:31.989Z,100889.77
2022-11-28T22:32:34.554Z,100885.98
2022-11-28T22:37:37.106Z,100880.45
2022-11-28T22:42:39.597Z,100877.85
2022-11-28T22:47:42.116Z,100879.91
2022-11-28T22:52:44.663Z,100875.95
2022-11-28T22:57:47.253Z,100876.10
2022-11-28T23:02:49.893Z,100878.33
2022-11-28T23:07:52.659Z,100877.61
2022-11-28T23:12:57.511Z,100885.71
2022-11-28T23:18:00.043Z,100882.92
2022-11-28T23:23:02.543Z,100884.45
2022-11-28T23:28:05.021Z,100882.02
2022-11-28T23:33:07.590Z,100885.61
2022-11-28T23:38:10.112Z,100883.05
2022-11-28T23:43:12.623Z,100883.69
2022-11-28T23:48:16.390Z,100882.64
2022-11-28T23:53:19.065Z,100881.59
2022-11-28T23:58:24.061Z,100884.18
